sensor_id;sensor_type;location;lat;lon;timestamp;temperature;humidity
41953;DHT22;63613;28.200;112.870;2023-08-20T00:02:02;30.70;38.70
41953;DHT22;63613;28.200;112.870;2023-08-20T00:04:31;30.70;38.40
41953;DHT22;63613;28.200;112.870;2023-08-20T00:07:03;30.80;37.70
41953;DHT22;63613;28.200;112.870;2023-08-20T00:09:30;30.80;38.20
41953;DHT22;63613;28.200;112.870;2023-08-20T00:12:16;30.80;37.80
41953;DHT22;63613;28.200;112.870;2023-08-20T00:15:01;30.80;37.70
41953;DHT22;63613;28.200;112.870;2023-08-20T00:17:48;30.80;37.40
41953;DHT22;63613;28.200;112.870;2023-08-20T00:20:15;30.80;37.20
41953;DHT22;63613;28.200;112.870;2023-08-20T00:22:43;30.90;38.00
41953;DHT22;63613;28.200;112.870;2023-08-20T00:25:15;30.90;38.30
41953;DHT22;63613;28.200;112.870;2023-08-20T00:27:43;30.90;39.40
41953;DHT22;63613;28.200;112.870;2023-08-20T00:30:10;31.00;38.90
41953;DHT22;63613;28.200;112.870;2023-08-20T00:32:37;31.00;40.20
41953;DHT22;63613;28.200;112.870;2023-08-20T00:35:04;31.00;40.90
41953;DHT22;63613;28.200;112.870;2023-08-20T00:37:33;31.00;38.80
41953;DHT22;63613;28.200;112.870;2023-08-20T00:40:01;31.00;38.50
41953;DHT22;63613;28.200;112.870;2023-08-20T00:42:31;31.00;38.90
41953;DHT22;63613;28.200;112.870;2023-08-20T00:44:57;31.00;39.70
41953;DHT22;63613;28.200;112.870;2023-08-20T00:47:24;31.10;40.20
41953;DHT22;63613;28.200;112.870;2023-08-20T00:49:53;31.10;39.30
41953;DHT22;63613;28.200;112.870;2023-08-20T00:52:20;31.10;37.60
41953;DHT22;63613;28.200;112.870;2023-08-20T00:54:49;31.10;37.50
41953;DHT22;63613;28.200;112.870;2023-08-20T00:57:18;31.10;38.50
41953;DHT22;63613;28.200;112.870;2023-08-20T00:59:48;31.10;39.40
41953;DHT22;63613;28.200;112.870;2023-08-20T01:02:18;31.10;39.80
41953;DHT22;63613;28.200;112.870;2023-08-20T01:04:47;31.20;39.90
41953;DHT22;63613;28.200;112.870;2023-08-20T01:07:48;31.20;38.80
41953;DHT22;63613;28.200;112.870;2023-08-20T01:13:01;31.20;36.40
41953;DHT22;63613;28.200;112.870;2023-08-20T01:15:28;31.20;36.00
41953;DHT22;63613;28.200;112.870;2023-08-20T01:17:55;31.20;35.60
41953;DHT22;63613;28.200;112.870;2023-08-20T01:20:29;31.20;35.30
41953;DHT22;63613;28.200;112.870;2023-08-20T01:29:05;31.40;36.50
41953;DHT22;63613;28.200;112.870;2023-08-20T01:31:33;31.30;38.20
41953;DHT22;63613;28.200;112.870;2023-08-20T01:34:01;31.40;36.60
41953;DHT22;63613;28.200;112.870;2023-08-20T01:36:28;31.40;36.10
41953;DHT22;63613;28.200;112.870;2023-08-20T01:38:55;31.40;35.80
41953;DHT22;63613;28.200;112.870;2023-08-20T01:41:21;31.40;35.60
41953;DHT22;63613;28.200;112.870;2023-08-20T01:43:48;31.50;35.50
41953;DHT22;63613;28.200;112.870;2023-08-20T01:46:15;31.50;37.60
41953;DHT22;63613;28.200;112.870;2023-08-20T01:48:42;31.50;35.90
41953;DHT22;63613;28.200;112.870;2023-08-20T01:51:08;31.50;35.50
41953;DHT22;63613;28.200;112.870;2023-08-20T01:53:35;31.50;35.40
41953;DHT22;63613;28.200;112.870;2023-08-20T01:56:02;31.60;35.00
41953;DHT22;63613;28.200;112.870;2023-08-20T01:58:29;31.50;34.40
41953;DHT22;63613;28.200;112.870;2023-08-20T02:00:59;31.50;34.30
41953;DHT22;63613;28.200;112.870;2023-08-20T02:03:25;31.50;34.10
41953;DHT22;63613;28.200;112.870;2023-08-20T02:05:52;31.50;33.90
41953;DHT22;63613;28.200;112.870;2023-08-20T02:08:22;31.60;35.10
41953;DHT22;63613;28.200;112.870;2023-08-20T02:10:49;31.60;36.90
41953;DHT22;63613;28.200;112.870;2023-08-20T02:13:16;31.60;37.60
41953;DHT22;63613;28.200;112.870;2023-08-20T02:15:42;31.60;40.20
41953;DHT22;63613;28.200;112.870;2023-08-20T02:18:09;31.70;37.80
41953;DHT22;63613;28.200;112.870;2023-08-20T02:20:56;31.70;36.60
41953;DHT22;63613;28.200;112.870;2023-08-20T02:23:24;31.70;36.00
41953;DHT22;63613;28.200;112.870;2023-08-20T02:25:50;31.70;35.40
41953;DHT22;63613;28.200;112.870;2023-08-20T02:28:17;31.70;34.90
41953;DHT22;63613;28.200;112.870;2023-08-20T02:30:45;31.70;34.90
41953;DHT22;63613;28.200;112.870;2023-08-20T02:33:12;31.70;34.70
41953;DHT22;63613;28.200;112.870;2023-08-20T02:35:40;31.70;35.70
41953;DHT22;63613;28.200;112.870;2023-08-20T02:38:07;31.80;35.70
41953;DHT22;63613;28.200;112.870;2023-08-20T02:40:40;31.80;34.90
41953;DHT22;63613;28.200;112.870;2023-08-20T02:43:07;31.80;34.40
41953;DHT22;63613;28.200;112.870;2023-08-20T02:45:40;31.80;34.00
41953;DHT22;63613;28.200;112.870;2023-08-20T02:48:08;31.80;33.90
41953;DHT22;63613;28.200;112.870;2023-08-20T02:50:35;31.80;36.10
41953;DHT22;63613;28.200;112.870;2023-08-20T02:53:02;31.80;39.70
41953;DHT22;63613;28.200;112.870;2023-08-20T02:55:30;31.70;40.70
41953;DHT22;63613;28.200;112.870;2023-08-20T02:57:58;31.70;42.90
41953;DHT22;63613;28.200;112.870;2023-08-20T03:00:25;31.80;46.00
41953;DHT22;63613;28.200;112.870;2023-08-20T03:02:52;31.80;47.90
41953;DHT22;63613;28.200;112.870;2023-08-20T03:05:20;31.70;46.70
41953;DHT22;63613;28.200;112.870;2023-08-20T03:07:47;31.70;46.90
41953;DHT22;63613;28.200;112.870;2023-08-20T03:10:13;31.70;45.10
41953;DHT22;63613;28.200;112.870;2023-08-20T03:12:40;31.70;43.60
41953;DHT22;63613;28.200;112.870;2023-08-20T03:15:14;31.70;43.10
41953;DHT22;63613;28.200;112.870;2023-08-20T03:17:44;31.70;43.50
41953;DHT22;63613;28.200;112.870;2023-08-20T03:20:31;31.80;41.90
41953;DHT22;63613;28.200;112.870;2023-08-20T03:22:58;31.80;40.40
41953;DHT22;63613;28.200;112.870;2023-08-20T03:25:27;31.80;39.30
41953;DHT22;63613;28.200;112.870;2023-08-20T03:27:54;31.80;38.90
41953;DHT22;63613;28.200;112.870;2023-08-20T03:30:41;31.90;38.70
41953;DHT22;63613;28.200;112.870;2023-08-20T03:33:09;31.90;37.50
41953;DHT22;63613;28.200;112.870;2023-08-20T03:35:36;32.00;36.90
41953;DHT22;63613;28.200;112.870;2023-08-20T03:38:03;32.00;36.20
41953;DHT22;63613;28.200;112.870;2023-08-20T03:40:29;32.10;35.50
41953;DHT22;63613;28.200;112.870;2023-08-20T03:42:58;32.10;36.40
41953;DHT22;63613;28.200;112.870;2023-08-20T03:45:27;32.10;36.30
41953;DHT22;63613;28.200;112.870;2023-08-20T03:47:56;32.10;35.20
41953;DHT22;63613;28.200;112.870;2023-08-20T03:50:25;32.20;34.60
41953;DHT22;63613;28.200;112.870;2023-08-20T03:52:52;32.20;33.80
41953;DHT22;63613;28.200;112.870;2023-08-20T03:55:18;32.20;33.40
41953;DHT22;63613;28.200;112.870;2023-08-20T03:57:45;32.20;33.10
41953;DHT22;63613;28.200;112.870;2023-08-20T04:00:13;32.30;32.80
41953;DHT22;63613;28.200;112.870;2023-08-20T04:02:39;32.30;32.80
41953;DHT22;63613;28.200;112.870;2023-08-20T04:05:06;32.30;32.40
41953;DHT22;63613;28.200;112.870;2023-08-20T04:07:34;32.40;32.20
41953;DHT22;63613;28.200;112.870;2023-08-20T04:10:01;32.40;31.90
41953;DHT22;63613;28.200;112.870;2023-08-20T04:12:28;32.50;31.60
41953;DHT22;63613;28.200;112.870;2023-08-20T04:14:55;32.50;31.50
41953;DHT22;63613;28.200;112.870;2023-08-20T04:17:22;32.50;31.20
41953;DHT22;63613;28.200;112.870;2023-08-20T04:19:49;32.60;31.00
41953;DHT22;63613;28.200;112.870;2023-08-20T04:22:16;32.70;31.40
41953;DHT22;63613;28.200;112.870;2023-08-20T04:24:43;32.70;31.10
41953;DHT22;63613;28.200;112.870;2023-08-20T04:27:11;32.70;30.90
41953;DHT22;63613;28.200;112.870;2023-08-20T04:29:37;32.70;30.90
41953;DHT22;63613;28.200;112.870;2023-08-20T04:32:06;32.70;30.80
41953;DHT22;63613;28.200;112.870;2023-08-20T04:34:33;32.70;30.50
41953;DHT22;63613;28.200;112.870;2023-08-20T04:37:00;32.80;30.30
41953;DHT22;63613;28.200;112.870;2023-08-20T04:39:27;32.80;31.30
41953;DHT22;63613;28.200;112.870;2023-08-20T04:41:54;32.90;33.80
41953;DHT22;63613;28.200;112.870;2023-08-20T04:44:23;32.90;34.00
41953;DHT22;63613;28.200;112.870;2023-08-20T04:46:52;33.00;32.60
41953;DHT22;63613;28.200;112.870;2023-08-20T04:49:20;32.90;31.90
41953;DHT22;63613;28.200;112.870;2023-08-20T04:51:47;32.90;31.40
41953;DHT22;63613;28.200;112.870;2023-08-20T04:54:14;32.80;31.00
41953;DHT22;63613;28.200;112.870;2023-08-20T04:56:40;32.80;30.70
41953;DHT22;63613;28.200;112.870;2023-08-20T04:59:07;32.80;30.50
41953;DHT22;63613;28.200;112.870;2023-08-20T05:01:35;32.80;30.20
41953;DHT22;63613;28.200;112.870;2023-08-20T05:04:02;32.80;30.10
41953;DHT22;63613;28.200;112.870;2023-08-20T05:06:32;32.80;29.90
41953;DHT22;63613;28.200;112.870;2023-08-20T05:08:59;32.90;29.70
41953;DHT22;63613;28.200;112.870;2023-08-20T05:11:26;32.90;31.00
41953;DHT22;63613;28.200;112.870;2023-08-20T05:13:55;33.00;34.70
41953;DHT22;63613;28.200;112.870;2023-08-20T05:16:23;33.10;33.10
41953;DHT22;63613;28.200;112.870;2023-08-20T05:18:52;33.20;32.00
41953;DHT22;63613;28.200;112.870;2023-08-20T05:21:20;33.20;31.40
41953;DHT22;63613;28.200;112.870;2023-08-20T05:23:46;33.20;30.80
41953;DHT22;63613;28.200;112.870;2023-08-20T05:26:13;33.20;30.50
41953;DHT22;63613;28.200;112.870;2023-08-20T05:28:42;33.20;30.20
41953;DHT22;63613;28.200;112.870;2023-08-20T05:31:09;33.20;35.50
41953;DHT22;63613;28.200;112.870;2023-08-20T05:33:36;33.30;36.60
41953;DHT22;63613;28.200;112.870;2023-08-20T05:36:03;33.40;37.30
41953;DHT22;63613;28.200;112.870;2023-08-20T05:38:30;33.40;38.60
41953;DHT22;63613;28.200;112.870;2023-08-20T05:40:58;33.50;39.50
41953;DHT22;63613;28.200;112.870;2023-08-20T05:43:25;33.60;40.30
41953;DHT22;63613;28.200;112.870;2023-08-20T05:45:52;33.60;39.10
41953;DHT22;63613;28.200;112.870;2023-08-20T05:48:19;33.60;38.10
41953;DHT22;63613;28.200;112.870;2023-08-20T05:50:46;33.60;36.90
41953;DHT22;63613;28.200;112.870;2023-08-20T05:53:13;33.60;37.70
41953;DHT22;63613;28.200;112.870;2023-08-20T05:55:40;33.60;36.70
41953;DHT22;63613;28.200;112.870;2023-08-20T05:58:07;33.50;35.50
41953;DHT22;63613;28.200;112.870;2023-08-20T06:00:34;33.50;34.30
41953;DHT22;63613;28.200;112.870;2023-08-20T06:03:01;33.40;34.10
41953;DHT22;63613;28.200;112.870;2023-08-20T06:05:30;33.40;33.30
41953;DHT22;63613;28.200;112.870;2023-08-20T06:08:20;33.40;32.70
41953;DHT22;63613;28.200;112.870;2023-08-20T06:10:46;33.40;33.30
41953;DHT22;63613;28.200;112.870;2023-08-20T06:13:13;33.50;34.70
41953;DHT22;63613;28.200;112.870;2023-08-20T06:15:43;33.50;36.50
41953;DHT22;63613;28.200;112.870;2023-08-20T06:18:12;33.60;37.70
41953;DHT22;63613;28.200;112.870;2023-08-20T06:20:41;33.60;36.00
41953;DHT22;63613;28.200;112.870;2023-08-20T06:23:08;33.60;35.10
41953;DHT22;63613;28.200;112.870;2023-08-20T06:25:38;33.70;37.70
41953;DHT22;63613;28.200;112.870;2023-08-20T06:28:08;33.70;38.00
41953;DHT22;63613;28.200;112.870;2023-08-20T06:30:36;33.70;36.80
41953;DHT22;63613;28.200;112.870;2023-08-20T06:33:03;33.70;38.30
41953;DHT22;63613;28.200;112.870;2023-08-20T06:35:29;33.70;38.50
41953;DHT22;63613;28.200;112.870;2023-08-20T06:37:58;33.70;37.10
41953;DHT22;63613;28.200;112.870;2023-08-20T06:40:24;33.70;36.20
41953;DHT22;63613;28.200;112.870;2023-08-20T06:42:51;33.70;35.70
41953;DHT22;63613;28.200;112.870;2023-08-20T06:45:18;33.70;38.00
41953;DHT22;63613;28.200;112.870;2023-08-20T06:47:45;33.80;35.80
41953;DHT22;63613;28.200;112.870;2023-08-20T06:50:12;33.80;34.40
41953;DHT22;63613;28.200;112.870;2023-08-20T06:52:39;33.70;33.20
41953;DHT22;63613;28.200;112.870;2023-08-20T06:55:07;33.80;32.00
41953;DHT22;63613;28.200;112.870;2023-08-20T06:57:34;33.70;31.50
41953;DHT22;63613;28.200;112.870;2023-08-20T07:00:01;33.80;31.60
41953;DHT22;63613;28.200;112.870;2023-08-20T07:02:51;33.80;31.10
41953;DHT22;63613;28.200;112.870;2023-08-20T07:05:17;33.70;30.70
41953;DHT22;63613;28.200;112.870;2023-08-20T07:07:45;33.80;30.70
41953;DHT22;63613;28.200;112.870;2023-08-20T07:10:12;33.70;30.50
41953;DHT22;63613;28.200;112.870;2023-08-20T07:12:40;33.70;32.70
41953;DHT22;63613;28.200;112.870;2023-08-20T07:15:13;33.80;33.70
41953;DHT22;63613;28.200;112.870;2023-08-20T07:17:43;33.80;32.40
41953;DHT22;63613;28.200;112.870;2023-08-20T07:20:10;33.70;32.90
41953;DHT22;63613;28.200;112.870;2023-08-20T07:22:44;33.80;32.70
41953;DHT22;63613;28.200;112.870;2023-08-20T07:25:11;33.80;33.70
41953;DHT22;63613;28.200;112.870;2023-08-20T07:27:38;33.70;33.10
41953;DHT22;63613;28.200;112.870;2023-08-20T07:30:05;33.80;34.70
41953;DHT22;63613;28.200;112.870;2023-08-20T07:32:34;33.70;33.70
41953;DHT22;63613;28.200;112.870;2023-08-20T07:35:01;33.70;33.50
41953;DHT22;63613;28.200;112.870;2023-08-20T07:37:28;33.70;32.50
41953;DHT22;63613;28.200;112.870;2023-08-20T07:40:00;33.70;32.20
41953;DHT22;63613;28.200;112.870;2023-08-20T07:42:48;33.70;32.10
41953;DHT22;63613;28.200;112.870;2023-08-20T07:45:16;33.70;32.30
41953;DHT22;63613;28.200;112.870;2023-08-20T07:47:43;33.70;31.80
41953;DHT22;63613;28.200;112.870;2023-08-20T07:50:10;33.70;31.60
41953;DHT22;63613;28.200;112.870;2023-08-20T07:52:37;33.70;31.20
41953;DHT22;63613;28.200;112.870;2023-08-20T07:55:04;33.70;31.30
41953;DHT22;63613;28.200;112.870;2023-08-20T07:57:51;33.60;30.90
41953;DHT22;63613;28.200;112.870;2023-08-20T08:00:20;33.60;30.40
41953;DHT22;63613;28.200;112.870;2023-08-20T08:02:49;33.60;30.40
41953;DHT22;63613;28.200;112.870;2023-08-20T08:05:16;33.60;30.50
41953;DHT22;63613;28.200;112.870;2023-08-20T08:07:44;33.60;30.10
41953;DHT22;63613;28.200;112.870;2023-08-20T08:10:12;33.60;32.30
41953;DHT22;63613;28.200;112.870;2023-08-20T08:12:39;33.50;32.50
41953;DHT22;63613;28.200;112.870;2023-08-20T08:15:06;33.50;32.50
41953;DHT22;63613;28.200;112.870;2023-08-20T08:17:33;33.50;33.50
41953;DHT22;63613;28.200;112.870;2023-08-20T08:20:00;33.50;34.40
41953;DHT22;63613;28.200;112.870;2023-08-20T08:22:49;33.50;34.60
41953;DHT22;63613;28.200;112.870;2023-08-20T08:25:16;33.40;33.80
41953;DHT22;63613;28.200;112.870;2023-08-20T08:27:42;33.50;32.90
41953;DHT22;63613;28.200;112.870;2023-08-20T08:30:13;33.50;32.20
41953;DHT22;63613;28.200;112.870;2023-08-20T08:32:42;33.40;31.70
41953;DHT22;63613;28.200;112.870;2023-08-20T08:35:11;33.40;31.60
41953;DHT22;63613;28.200;112.870;2023-08-20T08:37:41;33.40;31.10
41953;DHT22;63613;28.200;112.870;2023-08-20T08:40:09;33.40;30.70
41953;DHT22;63613;28.200;112.870;2023-08-20T08:42:37;33.40;30.40
41953;DHT22;63613;28.200;112.870;2023-08-20T08:45:05;33.40;30.20
41953;DHT22;63613;28.200;112.870;2023-08-20T08:47:35;33.30;31.60
41953;DHT22;63613;28.200;112.870;2023-08-20T08:50:02;33.30;33.00
41953;DHT22;63613;28.200;112.870;2023-08-20T08:52:30;33.20;31.20
41953;DHT22;63613;28.200;112.870;2023-08-20T08:54:59;33.20;30.70
41953;DHT22;63613;28.200;112.870;2023-08-20T08:57:29;33.20;30.30
41953;DHT22;63613;28.200;112.870;2023-08-20T08:59:57;33.20;30.00
41953;DHT22;63613;28.200;112.870;2023-08-20T09:02:26;33.20;29.70
41953;DHT22;63613;28.200;112.870;2023-08-20T09:04:53;33.20;29.60
41953;DHT22;63613;28.200;112.870;2023-08-20T09:07:20;33.10;29.40
41953;DHT22;63613;28.200;112.870;2023-08-20T09:09:47;33.20;30.00
41953;DHT22;63613;28.200;112.870;2023-08-20T09:12:20;33.10;32.30
41953;DHT22;63613;28.200;112.870;2023-08-20T09:14:48;33.10;32.80
41953;DHT22;63613;28.200;112.870;2023-08-20T09:17:16;33.10;31.40
41953;DHT22;63613;28.200;112.870;2023-08-20T09:19:45;33.10;30.80
41953;DHT22;63613;28.200;112.870;2023-08-20T09:22:13;33.10;30.60
41953;DHT22;63613;28.200;112.870;2023-08-20T09:24:51;33.10;30.30
41953;DHT22;63613;28.200;112.870;2023-08-20T09:27:18;33.00;29.80
41953;DHT22;63613;28.200;112.870;2023-08-20T09:29:56;33.00;29.80
41953;DHT22;63613;28.200;112.870;2023-08-20T09:32:29;33.00;29.60
41953;DHT22;63613;28.200;112.870;2023-08-20T09:34:56;32.90;29.30
41953;DHT22;63613;28.200;112.870;2023-08-20T09:37:24;32.90;29.10
41953;DHT22;63613;28.200;112.870;2023-08-20T09:39:51;32.90;29.00
41953;DHT22;63613;28.200;112.870;2023-08-20T09:42:21;32.80;28.90
41953;DHT22;63613;28.200;112.870;2023-08-20T09:44:48;32.80;28.80
41953;DHT22;63613;28.200;112.870;2023-08-20T09:47:16;32.80;28.70
41953;DHT22;63613;28.200;112.870;2023-08-20T09:49:45;32.80;28.70
41953;DHT22;63613;28.200;112.870;2023-08-20T09:52:47;32.80;28.70
41953;DHT22;63613;28.200;112.870;2023-08-20T09:55:16;32.70;28.70
41953;DHT22;63613;28.200;112.870;2023-08-20T09:57:44;32.70;28.60
41953;DHT22;63613;28.200;112.870;2023-08-20T10:00:12;32.70;28.60
41953;DHT22;63613;28.200;112.870;2023-08-20T10:02:40;32.70;28.60
41953;DHT22;63613;28.200;112.870;2023-08-20T10:05:08;32.70;28.60
41953;DHT22;63613;28.200;112.870;2023-08-20T10:07:36;32.70;28.60
41953;DHT22;63613;28.200;112.870;2023-08-20T10:10:05;32.70;28.60
41953;DHT22;63613;28.200;112.870;2023-08-20T10:12:33;32.60;28.60
41953;DHT22;63613;28.200;112.870;2023-08-20T10:15:01;32.60;28.70
41953;DHT22;63613;28.200;112.870;2023-08-20T10:17:38;32.60;28.60
41953;DHT22;63613;28.200;112.870;2023-08-20T10:20:07;32.60;28.70
41953;DHT22;63613;28.200;112.870;2023-08-20T10:22:39;32.50;29.00
41953;DHT22;63613;28.200;112.870;2023-08-20T10:25:07;32.50;30.10
41953;DHT22;63613;28.200;112.870;2023-08-20T10:27:38;32.50;31.20
41953;DHT22;63613;28.200;112.870;2023-08-20T10:30:11;32.50;31.30
41953;DHT22;63613;28.200;112.870;2023-08-20T10:32:54;32.40;31.20
41953;DHT22;63613;28.200;112.870;2023-08-20T10:35:48;32.40;31.80
41953;DHT22;63613;28.200;112.870;2023-08-20T10:38:17;32.40;34.00
41953;DHT22;63613;28.200;112.870;2023-08-20T10:40:57;32.40;34.60
41953;DHT22;63613;28.200;112.870;2023-08-20T10:43:29;32.40;34.80
41953;DHT22;63613;28.200;112.870;2023-08-20T10:46:23;32.30;33.50
41953;DHT22;63613;28.200;112.870;2023-08-20T10:48:57;32.30;32.10
41953;DHT22;63613;28.200;112.870;2023-08-20T10:51:29;32.20;32.30
41953;DHT22;63613;28.200;112.870;2023-08-20T10:54:02;32.30;32.80
41953;DHT22;63613;28.200;112.870;2023-08-20T10:59:08;32.20;34.80
41953;DHT22;63613;28.200;112.870;2023-08-20T11:01:35;32.20;35.10
41953;DHT22;63613;28.200;112.870;2023-08-20T11:04:04;32.20;35.20
41953;DHT22;63613;28.200;112.870;2023-08-20T11:06:35;32.20;35.60
41953;DHT22;63613;28.200;112.870;2023-08-20T11:09:07;32.20;35.10
41953;DHT22;63613;28.200;112.870;2023-08-20T11:11:34;32.20;34.60
41953;DHT22;63613;28.200;112.870;2023-08-20T11:14:21;32.20;33.90
41953;DHT22;63613;28.200;112.870;2023-08-20T11:16:50;32.20;33.20
41953;DHT22;63613;28.200;112.870;2023-08-20T11:19:23;32.10;32.70
41953;DHT22;63613;28.200;112.870;2023-08-20T11:21:54;32.10;32.30
41953;DHT22;63613;28.200;112.870;2023-08-20T11:24:22;32.10;32.30
41953;DHT22;63613;28.200;112.870;2023-08-20T11:26:49;32.10;32.50
41953;DHT22;63613;28.200;112.870;2023-08-20T11:29:19;32.10;32.40
41953;DHT22;63613;28.200;112.870;2023-08-20T11:31:48;32.10;32.50
41953;DHT22;63613;28.200;112.870;2023-08-20T11:34:15;32.10;32.60
41953;DHT22;63613;28.200;112.870;2023-08-20T11:36:42;32.00;32.50
41953;DHT22;63613;28.200;112.870;2023-08-20T11:39:09;32.00;32.00
41953;DHT22;63613;28.200;112.870;2023-08-20T11:41:37;32.00;31.90
41953;DHT22;63613;28.200;112.870;2023-08-20T11:44:04;31.90;31.90
41953;DHT22;63613;28.200;112.870;2023-08-20T11:46:31;31.90;31.50
41953;DHT22;63613;28.200;112.870;2023-08-20T11:49:03;32.00;31.20
41953;DHT22;63613;28.200;112.870;2023-08-20T11:51:37;31.90;31.10
41953;DHT22;63613;28.200;112.870;2023-08-20T11:54:15;31.90;31.00
41953;DHT22;63613;28.200;112.870;2023-08-20T11:56:45;31.90;30.80
41953;DHT22;63613;28.200;112.870;2023-08-20T11:59:14;31.90;30.70
41953;DHT22;63613;28.200;112.870;2023-08-20T12:01:57;31.90;30.70
41953;DHT22;63613;28.200;112.870;2023-08-20T12:04:27;31.90;30.60
41953;DHT22;63613;28.200;112.870;2023-08-20T12:07:14;31.90;30.60
41953;DHT22;63613;28.200;112.870;2023-08-20T12:09:42;31.80;30.60
41953;DHT22;63613;28.200;112.870;2023-08-20T12:12:10;31.80;30.40
41953;DHT22;63613;28.200;112.870;2023-08-20T12:14:38;31.80;30.40
41953;DHT22;63613;28.200;112.870;2023-08-20T12:17:18;31.80;30.70
41953;DHT22;63613;28.200;112.870;2023-08-20T12:19:46;31.80;30.60
41953;DHT22;63613;28.200;112.870;2023-08-20T12:22:14;31.80;30.70
41953;DHT22;63613;28.200;112.870;2023-08-20T12:24:44;31.80;30.80
41953;DHT22;63613;28.200;112.870;2023-08-20T12:27:11;31.80;30.80
41953;DHT22;63613;28.200;112.870;2023-08-20T12:29:41;31.80;30.70
41953;DHT22;63613;28.200;112.870;2023-08-20T12:32:08;31.80;31.00
41953;DHT22;63613;28.200;112.870;2023-08-20T12:34:35;31.70;31.20
41953;DHT22;63613;28.200;112.870;2023-08-20T12:37:03;31.70;31.30
41953;DHT22;63613;28.200;112.870;2023-08-20T12:39:29;31.80;31.30
41953;DHT22;63613;28.200;112.870;2023-08-20T12:41:56;31.70;31.50
41953;DHT22;63613;28.200;112.870;2023-08-20T12:44:24;31.70;31.60
41953;DHT22;63613;28.200;112.870;2023-08-20T12:46:51;31.70;31.60
41953;DHT22;63613;28.200;112.870;2023-08-20T12:49:18;31.70;31.60
41953;DHT22;63613;28.200;112.870;2023-08-20T12:51:44;31.70;31.80
41953;DHT22;63613;28.200;112.870;2023-08-20T12:54:11;31.70;31.90
41953;DHT22;63613;28.200;112.870;2023-08-20T12:56:38;31.70;32.20
41953;DHT22;63613;28.200;112.870;2023-08-20T12:59:05;31.70;32.20
41953;DHT22;63613;28.200;112.870;2023-08-20T13:01:32;31.70;32.40
41953;DHT22;63613;28.200;112.870;2023-08-20T13:03:59;31.70;33.00
41953;DHT22;63613;28.200;112.870;2023-08-20T13:06:28;31.70;33.10
41953;DHT22;63613;28.200;112.870;2023-08-20T13:08:55;31.70;33.30
41953;DHT22;63613;28.200;112.870;2023-08-20T13:11:22;31.70;34.00
41953;DHT22;63613;28.200;112.870;2023-08-20T13:13:53;31.70;34.30
41953;DHT22;63613;28.200;112.870;2023-08-20T13:16:20;31.70;35.50
41953;DHT22;63613;28.200;112.870;2023-08-20T13:18:47;31.70;36.50
41953;DHT22;63613;28.200;112.870;2023-08-20T13:21:14;31.70;36.60
41953;DHT22;63613;28.200;112.870;2023-08-20T13:23:41;31.70;36.60
41953;DHT22;63613;28.200;112.870;2023-08-20T13:26:08;31.70;36.30
41953;DHT22;63613;28.200;112.870;2023-08-20T13:28:36;31.70;36.90
41953;DHT22;63613;28.200;112.870;2023-08-20T13:31:04;31.70;39.20
41953;DHT22;63613;28.200;112.870;2023-08-20T13:33:31;31.70;42.20
41953;DHT22;63613;28.200;112.870;2023-08-20T13:35:58;31.70;44.90
41953;DHT22;63613;28.200;112.870;2023-08-20T13:38:27;31.80;48.00
41953;DHT22;63613;28.200;112.870;2023-08-20T13:40:54;31.80;49.70
41953;DHT22;63613;28.200;112.870;2023-08-20T13:43:23;31.80;49.70
41953;DHT22;63613;28.200;112.870;2023-08-20T13:45:53;31.80;47.50
41953;DHT22;63613;28.200;112.870;2023-08-20T13:48:21;31.80;46.40
41953;DHT22;63613;28.200;112.870;2023-08-20T13:50:48;31.80;45.00
41953;DHT22;63613;28.200;112.870;2023-08-20T13:53:36;31.70;43.80
41953;DHT22;63613;28.200;112.870;2023-08-20T13:56:03;31.70;42.70
41953;DHT22;63613;28.200;112.870;2023-08-20T13:58:30;31.70;42.10
41953;DHT22;63613;28.200;112.870;2023-08-20T14:00:57;31.70;41.20
41953;DHT22;63613;28.200;112.870;2023-08-20T14:03:24;31.70;41.00
41953;DHT22;63613;28.200;112.870;2023-08-20T14:05:51;31.70;40.70
41953;DHT22;63613;28.200;112.870;2023-08-20T14:08:18;31.70;40.30
41953;DHT22;63613;28.200;112.870;2023-08-20T14:10:47;31.70;40.20
41953;DHT22;63613;28.200;112.870;2023-08-20T14:13:14;31.70;40.30
41953;DHT22;63613;28.200;112.870;2023-08-20T14:15:41;31.70;40.90
41953;DHT22;63613;28.200;112.870;2023-08-20T14:18:07;31.70;41.50
41953;DHT22;63613;28.200;112.870;2023-08-20T14:20:34;31.70;42.70
41953;DHT22;63613;28.200;112.870;2023-08-20T14:23:04;31.70;43.50
41953;DHT22;63613;28.200;112.870;2023-08-20T14:25:31;31.70;45.70
41953;DHT22;63613;28.200;112.870;2023-08-20T14:27:58;31.70;45.30
41953;DHT22;63613;28.200;112.870;2023-08-20T14:30:35;31.70;45.20
41953;DHT22;63613;28.200;112.870;2023-08-20T14:33:08;31.70;46.20
41953;DHT22;63613;28.200;112.870;2023-08-20T14:35:37;31.70;47.10
41953;DHT22;63613;28.200;112.870;2023-08-20T14:38:03;31.70;47.40
41953;DHT22;63613;28.200;112.870;2023-08-20T14:40:31;31.70;47.80
41953;DHT22;63613;28.200;112.870;2023-08-20T14:43:00;31.70;47.20
41953;DHT22;63613;28.200;112.870;2023-08-20T14:45:27;31.70;47.60
41953;DHT22;63613;28.200;112.870;2023-08-20T14:47:55;31.70;46.90
41953;DHT22;63613;28.200;112.870;2023-08-20T14:50:22;31.70;46.90
41953;DHT22;63613;28.200;112.870;2023-08-20T14:52:50;31.70;46.50
41953;DHT22;63613;28.200;112.870;2023-08-20T14:55:37;31.70;46.10
41953;DHT22;63613;28.200;112.870;2023-08-20T14:58:05;31.70;45.10
41953;DHT22;63613;28.200;112.870;2023-08-20T15:00:33;31.70;44.40
41953;DHT22;63613;28.200;112.870;2023-08-20T15:03:01;31.70;43.70
41953;DHT22;63613;28.200;112.870;2023-08-20T15:05:29;31.70;42.90
41953;DHT22;63613;28.200;112.870;2023-08-20T15:07:56;31.70;42.80
41953;DHT22;63613;28.200;112.870;2023-08-20T15:10:23;31.70;42.70
41953;DHT22;63613;28.200;112.870;2023-08-20T15:12:52;31.70;42.50
41953;DHT22;63613;28.200;112.870;2023-08-20T15:15:19;31.70;42.60
41953;DHT22;63613;28.200;112.870;2023-08-20T15:17:46;31.70;42.60
41953;DHT22;63613;28.200;112.870;2023-08-20T15:20:16;31.70;42.80
41953;DHT22;63613;28.200;112.870;2023-08-20T15:22:44;31.70;43.80
41953;DHT22;63613;28.200;112.870;2023-08-20T15:25:14;31.70;45.40
41953;DHT22;63613;28.200;112.870;2023-08-20T15:27:43;31.70;46.90